Time;durP1;ratioP1;P1;durP2;ratioP2;P2;SDS_P1;SDS_P2;PMS_P1;PMS_P2;Temp;Humidity;BMP_temperature;BMP_pressure;BME280_temperature;BME280_humidity;BME280_pressure;Samples;Min_cycle;Max_cycle;Signal;HPM_P1;HPM_P2
2021/06/15 00:01:57;;;;;;;10.60;7.93;;;;;;;18.80;80.97;101870.16;10536053;28;20121;-75
2021/06/15 00:06:58;;;;;;;11.70;7.82;;;;;;;19.09;81.07;101918.72;10549299;28;20043;-74
2021/06/15 00:11:58;;;;;;;11.40;7.68;;;;;;;19.10;80.79;101920.28;10558260;28;20128;-75
2021/06/15 00:16:59;;;;;;;12.43;7.95;;;;;;;18.74;80.91;101870.91;10558829;28;20032;-75
2021/06/15 00:21:59;;;;;;;10.68;8.02;;;;;;;18.50;83.67;101911.56;10558108;28;20110;-74
2021/06/15 00:27:00;;;;;;;13.35;8.15;;;;;;;18.31;85.54;101914.63;10555395;28;20130;-75
2021/06/15 00:32:01;;;;;;;12.82;8.15;;;;;;;18.50;85.08;101933.47;10552885;28;20387;-77
2021/06/15 00:37:02;;;;;;;13.63;7.97;;;;;;;18.60;84.34;101937.38;10554481;28;20043;-76
2021/06/15 00:42:05;;;;;;;12.45;8.57;;;;;;;18.71;83.69;101934.69;10549559;28;20488;-77
2021/06/15 00:47:06;;;;;;;10.20;7.95;;;;;;;18.79;82.99;101950.00;10523157;28;20124;-77
2021/06/15 00:52:07;;;;;;;11.88;7.60;;;;;;;18.75;83.12;101939.00;10539462;28;20039;-77
2021/06/15 00:57:14;;;;;;;10.57;7.13;;;;;;;18.00;82.24;101834.78;10536279;28;20101;-74
2021/06/15 01:02:15;;;;;;;12.00;7.88;;;;;;;18.73;82.63;101957.00;10537280;28;20051;-77
2021/06/15 01:07:46;;;;;;;10.77;6.95;;;;;;;18.66;82.94;101951.50;10559356;28;20048;-77
2021/06/15 01:13:09;;;;;;;12.65;7.53;;;;;;;18.41;84.82;101957.69;10532201;28;20038;-77
2021/06/15 01:18:12;;;;;;;13.82;8.55;;;;;;;17.91;85.38;101898.06;10550730;28;20121;-77
2021/06/15 01:23:39;;;;;;;10.30;8.07;;;;;;;18.23;86.42;101956.84;10538232;28;20070;-77
2021/06/15 01:28:43;;;;;;;13.63;9.82;;;;;;;18.28;85.95;101949.03;10542503;28;20039;-78
2021/06/15 01:33:55;;;;;;;13.30;8.80;;;;;;;17.88;85.67;101892.59;10537843;28;20031;-77
2021/06/15 01:38:58;;;;;;;12.40;9.60;;;;;;;18.15;86.54;101945.88;10530764;28;20117;-77
2021/06/15 01:44:06;;;;;;;13.40;9.50;;;;;;;17.92;87.79;101939.88;10532962;28;20858;-77
2021/06/15 01:49:11;;;;;;;15.05;10.48;;;;;;;17.55;89.41;101913.47;10530726;28;20043;-75
2021/06/15 01:54:12;;;;;;;17.40;9.93;;;;;;;17.98;89.59;101971.19;10548129;28;20100;-76
2021/06/15 01:59:15;;;;;;;19.38;12.02;;;;;;;18.13;88.62;101964.63;10519122;28;20035;-75
2021/06/15 02:04:16;;;;;;;15.93;10.85;;;;;;;18.22;87.61;101968.94;10558788;28;20039;-77
2021/06/15 02:09:18;;;;;;;19.20;11.23;;;;;;;18.32;87.30;101960.00;10562766;28;20050;-75
2021/06/15 02:14:27;;;;;;;18.50;12.00;;;;;;;18.52;86.59;101969.44;10546931;28;20387;-75
2021/06/15 02:19:30;;;;;;;16.98;11.60;;;;;;;18.19;86.90;101912.25;10543878;28;20391;-75
2021/06/15 02:24:35;;;;;;;17.95;12.10;;;;;;;18.29;86.79;101922.44;10544398;28;20027;-75
2021/06/15 02:29:38;;;;;;;17.67;12.18;;;;;;;18.59;86.89;101953.03;10560653;28;20036;-77
2021/06/15 02:34:43;;;;;;;16.52;11.80;;;;;;;18.68;87.25;101965.59;10562255;28;20063;-75
2021/06/15 02:39:44;;;;;;;16.77;12.05;;;;;;;18.62;87.56;101951.47;10543970;28;20485;-76
2021/06/15 02:44:46;;;;;;;21.50;12.85;;;;;;;18.53;88.61;101965.56;10557168;28;20102;-75
2021/06/15 02:49:49;;;;;;;18.05;12.55;;;;;;;18.20;89.19;101920.06;10556178;28;20460;-76
2021/06/15 02:55:33;;;;;;;18.25;11.73;;;;;;;18.43;89.84;101963.56;10539325;28;20249;-76
2021/06/15 03:00:33;;;;;;;20.10;11.70;;;;;;;18.39;89.52;101954.56;10507864;28;20506;-76
2021/06/15 03:05:34;;;;;;;16.50;11.73;;;;;;;18.03;89.49;101888.72;10560834;28;20038;-77
2021/06/15 03:10:35;;;;;;;21.00;11.90;;;;;;;18.66;89.49;101973.41;10561037;28;20126;-77
2021/06/15 03:15:42;;;;;;;19.17;12.55;;;;;;;18.47;89.52;101939.72;10545354;28;20095;-77
2021/06/15 03:20:46;;;;;;;15.45;11.52;;;;;;;18.21;90.33;101909.94;10539279;28;20364;-78
2021/06/15 03:25:47;;;;;;;14.68;12.13;;;;;;;18.43;91.37;101960.03;10543740;28;20040;-76
2021/06/15 03:30:48;;;;;;;18.52;13.65;;;;;;;18.32;92.88;101963.53;10556379;28;20429;-76
2021/06/15 03:35:51;;;;;;;18.42;12.73;;;;;;;18.32;94.11;101968.19;10540226;28;20019;-76
2021/06/15 03:40:53;;;;;;;20.88;14.15;;;;;;;17.89;93.54;101910.56;10537923;28;20024;-76
2021/06/15 03:46:13;;;;;;;20.20;12.32;;;;;;;18.22;93.50;101961.50;10537620;28;20067;-76
2021/06/15 03:51:19;;;;;;;21.10;12.25;;;;;;;18.23;93.54;101951.38;10533440;28;20143;-76
2021/06/15 03:56:20;;;;;;;19.35;11.30;;;;;;;18.42;92.74;101986.63;10528056;28;20024;-76
2021/06/15 04:01:23;;;;;;;13.73;9.70;;;;;;;18.14;93.06;101919.66;10539614;28;20047;-78
2021/06/15 04:06:24;;;;;;;18.10;9.90;;;;;;;18.56;92.54;101975.72;10536045;28;20036;-75
2021/06/15 04:11:27;;;;;;;13.90;9.63;;;;;;;18.71;92.13;102003.94;10541554;28;20381;-75
2021/06/15 04:16:28;;;;;;;17.67;10.52;;;;;;;18.33;91.86;101939.69;10541989;28;20031;-76
2021/06/15 04:21:32;;;;;;;14.57;9.02;;;;;;;18.71;91.88;101997.69;10536465;28;20089;-76
2021/06/15 04:26:36;;;;;;;13.55;8.77;;;;;;;18.43;92.25;101963.56;10520735;28;20148;-76
2021/06/15 04:31:39;;;;;;;13.73;7.68;;;;;;;18.47;91.41;101956.16;10553227;28;20135;-76
2021/06/15 04:36:40;;;;;;;12.80;7.55;;;;;;;18.83;90.67;102005.56;10537870;28;20054;-76
2021/06/15 04:42:01;;;;;;;23.13;10.85;;;;;;;18.71;89.41;101981.25;10533728;28;20032;-76
2021/06/15 04:47:20;;;;;;;13.18;7.00;;;;;;;19.05;87.35;102027.53;10535694;28;20577;-76
2021/06/15 04:52:24;;;;;;;9.55;6.18;;;;;;;18.81;87.14;101986.00;10548454;28;20027;-77
2021/06/15 04:57:30;;;;;;;8.65;4.90;;;;;;;19.16;84.50;102039.31;10534474;28;20036;-77
2021/06/15 05:02:31;;;;;;;7.28;4.38;;;;;;;19.21;82.47;102044.38;10538877;28;20066;-77
2021/06/15 05:07:31;;;;;;;7.85;4.50;;;;;;;19.08;81.62;102022.06;10558008;28;20035;-76
2021/06/15 05:12:44;;;;;;;7.40;4.53;;;;;;;19.03;81.29;102024.41;10553741;28;20036;-77
2021/06/15 05:17:48;;;;;;;10.70;4.10;;;;;;;19.06;80.68;102034.59;10526662;28;20051;-76
2021/06/15 05:23:07;;;;;;;7.45;3.40;;;;;;;18.85;80.60;102003.22;10549429;28;20115;-76
2021/06/15 05:28:07;;;;;;;9.63;3.92;;;;;;;18.98;79.62;102023.63;10533526;28;20043;-76
2021/06/15 05:33:07;;;;;;;7.82;3.88;;;;;;;19.30;79.56;102061.25;10531397;28;20044;-75
2021/06/15 05:38:11;;;;;;;10.38;3.63;;;;;;;18.95;79.09;102002.44;10551792;28;20563;-76
2021/06/15 05:43:12;;;;;;;9.15;4.03;;;;;;;19.32;78.83;102064.38;10557346;28;20031;-75
2021/06/15 05:48:14;;;;;;;9.65;4.05;;;;;;;19.22;77.95;102026.78;10557419;28;20412;-76
2021/06/15 05:53:15;;;;;;;7.15;3.65;;;;;;;19.46;77.86;102063.63;10545614;28;20119;-75
2021/06/15 05:58:16;;;;;;;8.02;4.25;;;;;;;19.52;77.59;102061.25;10553834;28;20475;-76
2021/06/15 06:03:22;;;;;;;11.93;4.55;;;;;;;19.69;77.19;102087.97;10550287;28;20032;-76
2021/06/15 06:08:24;;;;;;;9.20;4.10;;;;;;;19.73;76.99;102080.53;10530907;28;20051;-77
2021/06/15 06:13:24;;;;;;;11.07;5.60;;;;;;;19.74;76.65;102079.34;10531747;28;20146;-76
2021/06/15 06:18:24;;;;;;;7.40;3.83;;;;;;;19.53;75.78;102049.13;10550681;28;20824;-76
2021/06/15 06:23:28;;;;;;;8.77;3.83;;;;;;;19.55;74.74;102011.13;10541223;28;20038;-76
2021/06/15 06:28:28;;;;;;;14.25;3.85;;;;;;;20.48;71.73;102087.81;10551774;28;20035;-76
2021/06/15 06:33:29;;;;;;;12.90;3.33;;;;;;;20.59;70.59;102088.59;10548109;28;21029;-76
2021/06/15 06:38:29;;;;;;;7.13;3.20;;;;;;;20.69;69.44;102108.97;10549873;28;20468;-76
2021/06/15 06:43:30;;;;;;;7.47;2.65;;;;;;;20.30;68.95;102073.38;10546981;28;20097;-76
2021/06/15 06:48:30;;;;;;;8.95;3.65;;;;;;;20.32;69.40;102106.69;10537403;28;20132;-76
2021/06/15 06:53:32;;;;;;;9.45;2.95;;;;;;;20.16;69.07;102088.69;10555050;28;20035;-76
2021/06/15 06:58:33;;;;;;;7.75;2.47;;;;;;;20.41;67.64;102104.31;10541058;28;20035;-78
2021/06/15 07:03:34;;;;;;;5.72;2.40;;;;;;;20.44;67.73;102109.03;10554795;28;20380;-76
2021/06/15 07:08:37;;;;;;;4.93;2.42;;;;;;;20.41;66.96;102087.84;10544268;28;20046;-76
2021/06/15 07:13:37;;;;;;;6.50;2.35;;;;;;;20.66;62.42;102083.09;10561122;28;20044;-77
2021/06/15 07:18:39;;;;;;;5.00;1.40;;;;;;;20.82;60.08;102134.84;10550634;28;20150;-76
2021/06/15 07:23:40;;;;;;;3.97;1.30;;;;;;;21.02;58.95;102126.13;10526397;28;20028;-77
2021/06/15 07:28:41;;;;;;;3.33;1.10;;;;;;;20.74;57.58;102088.53;10558174;28;20059;-76
2021/06/15 07:33:41;;;;;;;5.53;1.23;;;;;;;21.09;59.01;102132.38;10562717;28;20277;-76
2021/06/15 07:38:42;;;;;;;4.60;1.67;;;;;;;21.40;58.84;102135.38;10559172;28;20102;-76
2021/06/15 07:43:42;;;;;;;5.30;1.83;;;;;;;21.25;56.41;102095.34;10557143;28;20044;-76
2021/06/15 07:48:43;;;;;;;4.85;1.30;;;;;;;21.76;54.62;102129.63;10560630;28;20043;-76
2021/06/15 07:53:44;;;;;;;3.35;1.27;;;;;;;21.66;55.41;102124.97;10553805;28;20067;-76
2021/06/15 07:58:44;;;;;;;4.20;1.40;;;;;;;21.73;53.42;102113.91;10547361;28;20047;-76
2021/06/15 08:03:45;;;;;;;2.72;1.02;;;;;;;21.61;53.62;102117.13;10541628;28;20131;-76
2021/06/15 08:08:45;;;;;;;3.03;1.02;;;;;;;21.66;53.53;102113.94;10553571;28;20119;-76
2021/06/15 08:13:46;;;;;;;5.93;1.67;;;;;;;21.42;52.94;102072.47;10541808;28;20036;-77
2021/06/15 08:18:47;;;;;;;2.90;1.10;;;;;;;21.42;54.15;102066.19;10552525;28;20066;-76
2021/06/15 08:23:47;;;;;;;3.92;1.10;;;;;;;22.35;53.54;102104.69;10537825;28;20440;-76
2021/06/15 08:28:48;;;;;;;3.25;1.33;;;;;;;22.87;49.58;102050.53;10553661;28;20058;-77
2021/06/15 08:33:48;;;;;;;3.88;1.33;;;;;;;22.58;49.96;102048.16;10533300;28;20086;-77
2021/06/15 08:38:49;;;;;;;3.05;1.10;;;;;;;23.34;50.30;102116.88;10522643;28;20384;-76
2021/06/15 08:43:49;;;;;;;3.65;1.23;;;;;;;23.63;50.76;102106.94;10527407;28;20028;-77
2021/06/15 08:48:50;;;;;;;3.92;1.00;;;;;;;24.28;47.29;102116.88;10545292;28;20479;-77
2021/06/15 08:54:02;;;;;;;7.07;1.70;;;;;;;23.83;48.18;102073.13;10561368;28;20040;-76
2021/06/15 08:59:06;;;;;;;;;;;;;;;23.82;49.33;102124.81;10542245;28;20031;-77
2021/06/15 09:04:06;;;;;;;5.90;1.42;;;;;;;24.83;47.26;102084.97;10555201;28;20313;-75
2021/06/15 09:09:07;;;;;;;5.10;1.30;;;;;;;25.47;46.05;102115.19;10552014;28;20035;-77
2021/06/15 09:14:07;;;;;;;41.75;4.85;;;;;;;25.26;45.71;102108.97;10534227;28;20127;-76
2021/06/15 09:19:21;;;;;;;5.85;1.90;;;;;;;25.05;47.19;102112.19;10533975;28;20042;-77
2021/06/15 09:24:24;;;;;;;6.45;1.70;;;;;;;25.10;46.50;102119.97;10527790;28;20118;-78
2021/06/15 09:29:41;;;;;;;5.20;1.83;;;;;;;25.04;47.56;102111.41;10528756;28;20385;-78
2021/06/15 09:34:54;;;;;;;4.25;1.65;;;;;;;25.08;47.22;102106.56;10554099;28;20043;-78
2021/06/15 09:39:54;;;;;;;5.88;1.50;;;;;;;25.35;46.38;102090.97;10550209;28;20034;-77
2021/06/15 09:44:55;;;;;;;6.68;1.70;;;;;;;26.23;44.64;102094.69;10557562;28;20043;-76
2021/06/15 09:49:56;;;;;;;7.50;1.48;;;;;;;25.94;43.82;102042.84;10535420;28;20105;-77
2021/06/15 09:55:05;;;;;;;5.20;1.40;;;;;;;26.35;42.00;102049.63;10546078;28;20086;-78
2021/06/15 10:00:16;;;;;;;5.68;1.40;;;;;;;26.99;40.65;102069.88;10552133;28;20115;-77
2021/06/15 10:05:32;;;;;;;7.03;1.43;;;;;;;27.20;40.11;102095.44;10542256;28;20047;-77
2021/06/15 10:10:33;;;;;;;5.22;1.50;;;;;;;27.61;39.83;102085.41;10519080;28;20091;-77
2021/06/15 10:15:35;;;;;;;4.85;1.35;;;;;;;26.96;39.23;101973.66;10557937;28;20036;-79
2021/06/15 10:20:37;;;;;;;3.45;1.45;;;;;;;27.33;39.49;102082.34;10558841;28;20048;-74
2021/06/15 10:25:37;;;;;;;7.47;1.70;;;;;;;26.92;39.59;102047.91;10559305;28;20067;-76
2021/06/15 10:30:40;;;;;;;4.13;1.60;;;;;;;27.08;39.40;102049.03;10546956;28;20043;-77
2021/06/15 10:35:48;;;;;;;5.80;1.83;;;;;;;27.57;39.60;102084.75;10561809;28;20035;-74
2021/06/15 10:40:49;;;;;;;2.00;0.82;;;;;;;27.99;38.31;102088.09;10544078;28;20035;-73
2021/06/15 10:45:52;;;;;;;7.80;0.98;;;;;;;28.05;37.74;102052.13;10547897;28;20062;-73
2021/06/15 10:50:54;;;;;;;4.18;1.25;;;;;;;28.67;36.40;102080.06;10543391;28;20119;-74
2021/06/15 10:55:57;;;;;;;2.15;0.80;;;;;;;29.07;35.75;102084.88;10568502;28;20084;-73
2021/06/15 11:01:13;;;;;;;3.50;1.02;;;;;;;29.22;35.96;102068.38;10553516;28;20042;-75
2021/06/15 11:06:17;;;;;;;3.25;1.48;;;;;;;29.06;34.90;102065.81;10557379;28;20050;-73
2021/06/15 11:11:20;;;;;;;3.30;1.25;;;;;;;28.84;33.91;102049.22;10558068;28;20152;-74
2021/06/15 11:16:42;;;;;;;4.47;1.13;;;;;;;28.56;35.50;102035.19;10543821;28;20039;-73
2021/06/15 11:21:54;;;;;;;3.77;1.10;;;;;;;28.94;33.22;102059.13;10538189;28;20039;-74
2021/06/15 11:26:56;;;;;;;3.50;1.10;;;;;;;28.40;34.97;102057.63;10546771;28;20088;-73
2021/06/15 11:32:16;;;;;;;3.42;1.20;;;;;;;27.78;36.29;101995.09;10550845;28;20039;-73
2021/06/15 11:37:24;;;;;;;4.13;0.88;;;;;;;28.59;35.23;102014.78;10552234;28;20048;-74
2021/06/15 11:42:26;;;;;;;8.10;1.65;;;;;;;28.36;35.82;102043.06;10555030;28;20502;-74
2021/06/15 11:47:29;;;;;;;4.15;1.38;;;;;;;28.50;35.67;102045.34;10517302;28;20047;-74
2021/06/15 11:52:33;;;;;;;5.20;1.58;;;;;;;28.65;35.47;102043.56;10557726;28;20038;-73
2021/06/15 11:57:33;;;;;;;4.07;1.40;;;;;;;28.62;34.76;102027.78;10552666;28;20110;-73
2021/06/15 12:02:34;;;;;;;4.53;1.63;;;;;;;28.59;35.22;102039.81;10504733;28;20433;-73
2021/06/15 12:07:39;;;;;;;5.60;1.50;;;;;;;28.13;37.58;102028.44;10545172;28;20094;-73
2021/06/15 12:12:58;;;;;;;3.17;1.27;;;;;;;28.48;36.58;102033.91;10551586;28;20083;-73
2021/06/15 12:17:58;;;;;;;6.20;2.15;;;;;;;28.81;35.55;102016.72;10558203;28;20055;-72
2021/06/15 12:23:24;;;;;;;7.70;1.70;;;;;;;28.60;36.76;102030.25;10558690;28;20051;-77
2021/06/15 12:28:25;;;;;;;6.03;1.98;;;;;;;29.22;35.34;102023.06;10555903;28;20035;-76
2021/06/15 12:33:26;;;;;;;8.33;2.63;;;;;;;28.92;36.37;102022.63;10549252;28;20415;-75
2021/06/15 12:38:27;;;;;;;4.28;1.75;;;;;;;28.90;36.70;101966.66;10521737;28;20115;-73
2021/06/15 12:43:28;;;;;;;3.83;1.40;;;;;;;29.27;36.63;102008.50;10522012;28;20035;-75
2021/06/15 12:48:29;;;;;;;10.50;1.88;;;;;;;28.26;37.80;101961.63;10535967;28;20368;-75
2021/06/15 12:53:32;;;;;;;5.47;1.70;;;;;;;28.69;37.26;101978.66;10515886;28;20052;-76
2021/06/15 12:58:35;;;;;;;4.55;1.55;;;;;;;29.18;36.82;102002.94;10554003;28;20099;-76
2021/06/15 13:03:36;;;;;;;6.90;1.92;;;;;;;29.06;35.84;101971.94;10553635;28;20047;-76
2021/06/15 13:08:38;;;;;;;7.95;2.10;;;;;;;28.82;37.70;101996.03;10554101;28;20118;-75
2021/06/15 13:13:55;;;;;;;;;;;;;;;29.16;36.89;101985.91;10554306;28;20121;-75
2021/06/15 13:19:00;;;;;;;7.50;2.40;;;;;;;29.44;36.54;101984.69;10529281;28;20344;-75
2021/06/15 13:24:08;;;;;;;6.53;1.50;;;;;;;29.52;36.79;101978.84;10516820;28;20132;-76
2021/06/15 13:29:09;;;;;;;5.20;1.45;;;;;;;29.77;36.56;101972.94;10546414;28;20193;-75
2021/06/15 13:34:10;;;;;;;4.67;1.87;;;;;;;30.15;34.90;101971.66;10559295;28;20091;-75
2021/06/15 13:39:17;;;;;;;7.90;2.10;;;;;;;30.15;34.38;101957.69;10532745;28;20114;-76
2021/06/15 13:44:32;;;;;;;4.65;1.60;;;;;;;29.83;35.47;101964.75;10546233;28;20333;-75
2021/06/15 13:49:33;;;;;;;5.55;1.67;;;;;;;29.85;34.27;101924.00;10541798;28;20053;-76
2021/06/15 13:54:33;;;;;;;5.53;1.90;;;;;;;29.71;35.11;101952.53;10544050;28;20096;-76
2021/06/15 13:59:33;;;;;;;6.00;2.00;;;;;;;29.32;36.27;101918.78;10543713;27;20515;-76
2021/06/15 14:04:34;;;;;;;8.07;2.13;;;;;;;29.40;36.91;101953.47;10540675;28;20167;-76
2021/06/15 14:09:37;;;;;;;8.60;1.67;;;;;;;29.50;36.19;101927.13;10559782;28;20044;-76
2021/06/15 14:14:38;;;;;;;8.85;2.28;;;;;;;28.83;37.35;101902.94;10535782;28;20051;-75
2021/06/15 14:19:39;;;;;;;5.93;2.17;;;;;;;28.67;38.99;101940.19;10542561;27;20054;-74
2021/06/15 14:24:39;;;;;;;8.23;1.93;;;;;;;28.98;37.90;101883.66;10557300;27;20150;-76
2021/06/15 14:29:40;;;;;;;8.03;2.10;;;;;;;29.26;37.01;101934.59;10566563;27;20088;-75
2021/06/15 14:34:41;;;;;;;6.40;1.80;;;;;;;29.24;37.42;101925.91;10539841;28;20027;-75
2021/06/15 14:39:42;;;;;;;5.77;2.00;;;;;;;29.04;38.24;101896.47;10552130;28;20032;-75
2021/06/15 14:44:42;;;;;;;6.83;2.40;;;;;;;29.36;37.03;101916.63;10551324;27;20085;-76
2021/06/15 14:49:43;;;;;;;7.87;2.63;;;;;;;29.41;37.44;101902.06;10559984;28;20047;-75
2021/06/15 14:54:44;;;;;;;5.97;1.67;;;;;;;29.10;36.94;101887.56;10548368;28;20039;-75
2021/06/15 14:59:44;;;;;;;7.27;2.67;;;;;;;28.72;37.43;101874.81;10543407;28;20031;-78
2021/06/15 15:04:44;;;;;;;7.73;3.27;;;;;;;29.14;37.89;101904.84;10549129;28;20412;-74
2021/06/15 15:09:45;;;;;;;4.50;2.00;;;;;;;28.82;38.70;101885.47;10553457;28;20043;-74
2021/06/15 15:14:45;;;;;;;7.60;2.10;;;;;;;28.97;38.32;101857.81;10546082;28;20119;-76
2021/06/15 15:19:46;;;;;;;7.10;1.90;;;;;;;29.34;38.52;101891.25;10555269;28;20071;-74
2021/06/15 15:24:46;;;;;;;13.40;3.20;;;;;;;29.36;37.63;101847.00;10555117;28;20422;-73
2021/06/15 15:29:47;;;;;;;7.63;2.17;;;;;;;28.63;39.90;101862.44;10553424;28;20043;-73
2021/06/15 15:34:47;;;;;;;8.80;2.83;;;;;;;28.24;40.96;101875.91;10523737;28;20027;-73
2021/06/15 15:39:48;;;;;;;7.80;2.77;;;;;;;28.04;41.74;101883.84;10555901;28;20097;-75
2021/06/15 15:44:49;;;;;;;8.40;2.63;;;;;;;27.74;42.02;101844.44;10560212;28;20040;-73
2021/06/15 15:49:50;;;;;;;11.73;3.65;;;;;;;27.72;42.57;101883.00;10559876;28;20520;-73
2021/06/15 15:54:50;;;;;;;7.13;2.37;;;;;;;27.54;42.90;101874.56;10561834;28;20051;-73
2021/06/15 15:59:51;;;;;;;8.73;2.70;;;;;;;27.42;43.31;101884.50;10543974;28;20118;-73
2021/06/15 16:04:52;;;;;;;7.50;2.37;;;;;;;27.72;42.34;101862.81;10549680;28;20055;-73
2021/06/15 16:09:52;;;;;;;10.03;2.57;;;;;;;28.00;41.25;101872.09;10554710;28;20114;-72
2021/06/15 16:14:52;;;;;;;11.17;2.07;;;;;;;27.92;42.40;101854.91;10555132;28;20038;-72
2021/06/15 16:19:53;;;;;;;10.10;2.60;;;;;;;28.00;42.70;101860.97;10546387;28;20125;-72
2021/06/15 16:24:53;;;;;;;81.43;72.20;;;;;;;27.76;42.37;101830.88;10555885;28;20023;-73
2021/06/15 16:29:58;;;;;;;17.97;11.13;;;;;;;28.39;41.24;101853.09;10557972;28;20039;-71
2021/06/15 16:34:58;;;;;;;217.15;164.75;;;;;;;28.22;41.36;101839.44;10552289;28;20043;-71
2021/06/15 16:39:59;;;;;;;17.87;9.30;;;;;;;28.04;41.27;101806.03;10545089;28;20051;-71
2021/06/15 16:45:00;;;;;;;20.90;5.83;;;;;;;28.13;43.04;101847.75;10511318;28;20044;-71
2021/06/15 16:50:01;;;;;;;22.00;7.03;;;;;;;27.89;44.60;101832.81;10538758;28;20205;-72
2021/06/15 16:55:03;;;;;;;11.43;3.07;;;;;;;27.68;44.11;101801.84;10526753;28;20054;-73
2021/06/15 17:00:04;;;;;;;;;;;;;;;28.01;43.06;101841.06;10549597;28;20040;-70
2021/06/15 17:05:06;;;;;;;13.37;6.40;;;;;;;27.92;43.61;101815.25;10488722;28;19916;-70
2021/06/15 17:10:09;;;;;;;8.50;3.97;;;;;;;27.94;42.88;101840.56;10512982;28;20454;-72
2021/06/15 17:15:11;;;;;;;8.23;2.90;;;;;;;28.03;43.23;101837.81;10504313;28;20131;-70
2021/06/15 17:20:13;;;;;;;32.92;20.27;;;;;;;27.85;42.81;101807.19;10507689;28;20206;-69
2021/06/15 17:25:16;;;;;;;26.27;14.10;;;;;;;27.30;43.95;101783.41;10513121;28;20051;-73
2021/06/15 17:30:20;;;;;;;8.73;4.57;;;;;;;26.86;43.57;101772.28;10512309;28;20039;-74
2021/06/15 17:35:21;;;;;;;11.45;4.43;;;;;;;26.48;45.11;101775.94;10506689;28;20043;-73
2021/06/15 17:40:25;;;;;;;6.40;3.43;;;;;;;26.70;44.70;101825.16;10519489;28;20048;-73
2021/06/15 17:45:28;;;;;;;11.57;2.75;;;;;;;26.60;45.11;101831.81;10501462;28;20035;-72
2021/06/15 17:50:29;;;;;;;9.85;2.40;;;;;;;26.46;45.22;101828.28;10511024;28;21255;-72
2021/06/15 17:55:29;;;;;;;11.48;2.08;;;;;;;26.20;46.10;101771.31;10491638;28;20044;-72
2021/06/15 18:00:36;;;;;;;9.85;2.50;;;;;;;26.56;44.70;101816.09;10477502;28;20038;-74
2021/06/15 18:10:44;;;;;;;13.57;3.17;;;;;;;26.11;46.10;101813.59;10546302;28;20489;-73
2021/06/15 18:15:45;;;;;;;22.85;10.55;;;;;;;25.95;46.74;101806.16;10556424;28;20044;-74
2021/06/15 18:20:46;;;;;;;13.27;4.90;;;;;;;25.65;47.28;101794.34;10527333;28;20034;-74
2021/06/15 18:25:47;;;;;;;12.15;2.40;;;;;;;25.42;46.85;101766.97;10520335;28;20101;-74
2021/06/15 18:30:48;;;;;;;7.18;2.47;;;;;;;25.66;46.78;101801.47;10557624;28;20104;-74
2021/06/15 18:35:50;;;;;;;12.40;2.72;;;;;;;25.36;46.92;101777.03;10538410;28;20044;-74
2021/06/15 18:40:50;;;;;;;8.65;1.92;;;;;;;25.51;45.84;101803.84;10554840;28;20028;-73
2021/06/15 18:45:51;;;;;;;6.10;2.03;;;;;;;25.17;47.26;101798.88;10530812;28;20043;-74
2021/06/15 18:50:52;;;;;;;10.00;3.05;;;;;;;24.97;47.83;101789.94;10558305;28;20101;-73
2021/06/15 18:55:52;;;;;;;12.13;2.35;;;;;;;24.66;47.65;101754.41;10566629;28;20120;-72
2021/06/15 19:00:53;;;;;;;10.48;2.70;;;;;;;24.66;48.64;101782.06;10558326;28;20035;-72
2021/06/15 19:05:53;;;;;;;10.13;2.55;;;;;;;24.53;48.92;101786.72;10561410;28;20158;-73
2021/06/15 19:10:54;;;;;;;8.52;2.63;;;;;;;24.45;49.07;101784.09;10556972;28;20039;-73
2021/06/15 19:15:55;;;;;;;10.98;2.90;;;;;;;24.33;49.57;101775.75;10535278;28;20035;-74
2021/06/15 19:20:55;;;;;;;10.75;2.80;;;;;;;24.10;49.47;101768.41;10554246;28;20032;-74
2021/06/15 19:25:56;;;;;;;8.77;1.90;;;;;;;23.70;50.17;101746.41;10530977;28;20052;-73
2021/06/15 19:30:56;;;;;;;11.60;3.03;;;;;;;23.77;50.64;101784.94;10536463;28;20051;-72
2021/06/15 19:35:59;;;;;;;6.85;2.40;;;;;;;23.62;50.79;101779.69;10564172;28;20609;-72
2021/06/15 19:40:59;;;;;;;10.27;2.13;;;;;;;23.51;51.40;101779.13;10538862;28;20043;-72
2021/06/15 19:46:00;;;;;;;7.20;2.42;;;;;;;23.00;52.01;101728.94;10560449;28;20388;-74
2021/06/15 19:51:01;;;;;;;9.18;2.47;;;;;;;22.89;52.77;101733.84;10553286;28;20519;-75
2021/06/15 19:56:06;;;;;;;8.05;2.53;;;;;;;23.05;52.96;101785.56;10525187;28;20035;-72
2021/06/15 20:01:07;;;;;;;10.93;2.63;;;;;;;22.87;53.00;101785.88;10548992;28;20052;-72
2021/06/15 20:06:09;;;;;;;8.10;2.10;;;;;;;22.46;53.41;101745.63;10555393;28;20062;-73
2021/06/15 20:11:10;;;;;;;8.13;3.10;;;;;;;22.50;54.33;101774.69;10518231;28;20142;-72
2021/06/15 20:16:12;;;;;;;8.90;2.80;;;;;;;21.92;54.36;101725.22;10550442;28;20040;-72
2021/06/15 20:21:15;;;;;;;8.13;2.20;;;;;;;22.02;54.62;101756.53;10545458;28;20376;-73
2021/06/15 20:26:16;;;;;;;6.82;2.50;;;;;;;22.04;55.36;101794.66;10555454;28;20093;-72
2021/06/15 20:31:21;;;;;;;8.82;2.17;;;;;;;21.97;55.58;101797.53;10540641;28;20031;-73
2021/06/15 20:36:21;;;;;;;11.80;2.45;;;;;;;21.56;55.79;101757.19;10556035;28;20045;-73
2021/06/15 20:41:22;;;;;;;13.23;2.35;;;;;;;21.38;56.14;101752.66;10544173;28;20040;-72
2021/06/15 20:46:23;;;;;;;10.35;2.47;;;;;;;21.38;56.42;101773.84;10550954;28;20028;-72
2021/06/15 20:51:24;;;;;;;6.63;2.10;;;;;;;21.22;56.92;101755.22;10544219;28;20042;-72
2021/06/15 20:56:25;;;;;;;6.03;1.70;;;;;;;21.29;56.65;101782.63;10553695;28;20028;-72
2021/06/15 21:01:25;;;;;;;9.35;2.35;;;;;;;21.17;56.55;101783.94;10529931;28;20032;-72
2021/06/15 21:06:26;;;;;;;13.15;2.38;;;;;;;21.05;57.04;101774.25;10555923;28;20507;-72
2021/06/15 21:11:26;;;;;;;8.25;1.98;;;;;;;20.86;57.16;101772.06;10544329;28;20040;-73
2021/06/15 21:16:27;;;;;;;20.52;2.97;;;;;;;20.65;57.38;101740.88;10539139;28;20032;-73
2021/06/15 21:21:28;;;;;;;9.77;2.35;;;;;;;20.48;56.90;101730.78;10534901;28;20028;-73
2021/06/15 21:26:29;;;;;;;5.38;1.70;;;;;;;20.39;57.42;101733.22;10517708;28;20032;-73
2021/06/15 21:31:29;;;;;;;8.60;2.60;;;;;;;20.56;58.05;101765.28;10537043;28;20035;-73
2021/06/15 21:36:32;;;;;;;7.72;2.00;;;;;;;20.13;57.93;101710.69;10538275;28;20032;-72
2021/06/15 21:41:32;;;;;;;;;;;;;;;20.37;58.33;101763.84;10525131;28;20024;-73
2021/06/15 21:46:33;;;;;;;7.97;2.77;;;;;;;20.30;58.98;101760.38;10548330;28;19919;-74
2021/06/15 21:51:34;;;;;;;11.88;2.47;;;;;;;20.10;59.74;101749.13;10556165;28;20051;-72
2021/06/15 21:56:35;;;;;;;6.78;2.13;;;;;;;19.80;60.13;101703.84;10536161;28;20036;-72
2021/06/15 22:01:35;;;;;;;8.85;2.40;;;;;;;19.75;59.60;101696.03;10550511;28;20028;-72
2021/06/15 22:06:36;;;;;;;6.80;2.35;;;;;;;20.01;59.83;101741.34;10556171;28;20052;-72
2021/06/15 22:11:37;;;;;;;13.75;3.25;;;;;;;20.04;60.28;101746.06;10535753;28;20048;-72
2021/06/15 22:16:39;;;;;;;10.63;2.67;;;;;;;19.73;59.96;101699.22;10560505;28;20692;-72
2021/06/15 22:21:41;;;;;;;11.93;2.37;;;;;;;19.92;60.23;101743.75;10564119;28;20032;-72
2021/06/15 22:26:42;;;;;;;6.40;2.00;;;;;;;19.75;60.83;101740.72;10546257;28;20020;-71
2021/06/15 22:31:45;;;;;;;10.00;2.05;;;;;;;19.55;60.91;101701.25;10551442;28;20035;-72
2021/06/15 22:36:46;;;;;;;10.55;2.65;;;;;;;19.74;60.76;101728.19;10523310;28;20106;-73
2021/06/15 22:41:46;;;;;;;12.10;2.63;;;;;;;19.54;61.08;101724.34;10560424;28;20484;-72
2021/06/15 22:46:47;;;;;;;11.82;2.40;;;;;;;19.16;61.61;101672.03;10549722;28;20039;-73
2021/06/15 22:51:47;;;;;;;7.05;2.33;;;;;;;19.47;61.79;101729.88;10545924;28;20040;-74
2021/06/15 22:56:47;;;;;;;9.90;2.47;;;;;;;19.13;62.17;101672.84;10555746;28;20078;-73
2021/06/15 23:01:49;;;;;;;6.97;2.00;;;;;;;19.15;62.54;101687.72;10547822;28;20532;-73
2021/06/15 23:06:49;;;;;;;7.75;2.42;;;;;;;19.26;62.79;101709.59;10546403;28;20039;-73
2021/06/15 23:11:50;;;;;;;8.57;2.42;;;;;;;19.19;62.91;101717.81;10567051;28;20040;-73